CheckWX is a tool to help pilots better visualize weather data.  It is not intended as a substitute for an official pre-flight weather briefing.

12:23:47 UTC

FMNM METAR
Amborovy Airport
Madagascar
Current

24 mins ago

FMNM 181200Z 02008KT 9999 SCT020CB 31/27 Q1008 NOSIG
Observed
Feb-18 @ 12:00 UTC
Wind
  • 020° at 8 KTS
Visibility
10,000+ meters
Flight Rules
VFR
Cloud Levels
  • Scattered at 2,000' AGL
Temperature
31°C / 88°F
Dewpoint
27°C / 81°F
Humidity
79%
Altimeter
29.76" Hg
Pressure
1007.92 hPa
Previous

1 hour ago

FMNM 181100Z 36008KT 9999 SCT020CB 29/25 Q1009 TEMPO TS
Observed
Feb-18 @ 11:00 UTC
Wind
  • 360° at 8 KTS
Visibility
10,000+ meters
Flight Rules
VFR
Cloud Levels
  • Scattered at 2,000' AGL
Temperature
29°C / 84°F
Dewpoint
25°C / 77°F
Humidity
79%
Altimeter
29.79" Hg
Pressure
1008.92 hPa
Previous

2 hours ago

FMNM 181000Z 36010KT 9999 SCT020CB 31/26 Q1010 TEMPO TS
Observed
Feb-18 @ 10:00 UTC
Wind
  • 360° at 10 KTS
Visibility
10,000+ meters
Flight Rules
VFR
Cloud Levels
  • Scattered at 2,000' AGL
Temperature
31°C / 88°F
Dewpoint
26°C / 79°F
Humidity
75%
Altimeter
29.82" Hg
Pressure
1009.92 hPa